createdAt,value
2023-02-06T00:00:40.653Z,974.41
2023-02-06T00:01:40.565Z,974.32
2023-02-06T00:02:40.665Z,974.37
2023-02-06T00:03:40.604Z,974.32
2023-02-06T00:04:41.655Z,974.27
2023-02-06T00:05:40.538Z,974.24
2023-02-06T00:06:40.541Z,974.27
2023-02-06T00:07:40.637Z,974.32
2023-02-06T00:08:40.684Z,974.33
2023-02-06T00:09:40.495Z,974.30
2023-02-06T00:10:42.518Z,974.31
2023-02-06T00:11:40.569Z,974.32
2023-02-06T00:12:40.670Z,974.31
2023-02-06T00:13:40.432Z,974.33
2023-02-06T00:14:40.510Z,974.33
2023-02-06T00:15:40.592Z,974.33
2023-02-06T00:16:40.686Z,974.37
2023-02-06T00:17:40.562Z,974.39
2023-02-06T00:18:40.652Z,974.46
2023-02-06T00:19:41.290Z,974.43
2023-02-06T00:20:40.449Z,974.47
2023-02-06T00:21:40.719Z,974.42
2023-02-06T00:22:40.832Z,974.43
2023-02-06T00:23:40.526Z,974.42
2023-02-06T00:24:41.152Z,974.40
2023-02-06T00:25:41.796Z,974.43
2023-02-06T00:26:40.634Z,974.41
2023-02-06T00:27:40.359Z,974.38
2023-02-06T00:28:40.795Z,974.42
2023-02-06T00:29:40.532Z,974.40
2023-02-06T00:30:41.057Z,974.36
2023-02-06T00:31:40.742Z,974.38
2023-02-06T00:32:40.657Z,974.36
2023-02-06T00:33:40.310Z,974.39
2023-02-06T00:34:40.612Z,974.40
2023-02-06T00:35:40.684Z,974.39
2023-02-06T00:36:40.434Z,974.42
2023-02-06T00:37:40.516Z,974.48
2023-02-06T00:38:40.613Z,974.41
2023-02-06T00:39:40.317Z,974.36
2023-02-06T00:40:42.080Z,974.37
2023-02-06T00:41:40.512Z,974.37
2023-02-06T00:42:40.396Z,974.37
2023-02-06T00:43:40.467Z,974.35
2023-02-06T00:44:40.404Z,974.37
2023-02-06T00:45:40.462Z,974.36
2023-02-06T00:46:40.591Z,974.29
2023-02-06T00:47:40.245Z,974.31
2023-02-06T00:48:40.343Z,974.34
2023-02-06T00:49:40.107Z,974.29
2023-02-06T00:50:40.464Z,974.30
2023-02-06T00:51:40.630Z,974.27
2023-02-06T00:52:41.124Z,974.29
2023-02-06T00:53:40.216Z,974.25
2023-02-06T00:54:40.544Z,974.29
2023-02-06T00:55:40.656Z,974.27
2023-02-06T00:56:40.156Z,974.20
2023-02-06T00:57:41.091Z,974.26
2023-02-06T00:58:40.432Z,974.20
2023-02-06T00:59:40.616Z,974.20
2023-02-06T01:00:40.780Z,974.26
2023-02-06T01:01:40.409Z,974.26
2023-02-06T01:02:40.250Z,974.31
2023-02-06T01:03:40.268Z,974.28
2023-02-06T01:04:40.419Z,974.29
2023-02-06T01:05:40.763Z,974.26
2023-02-06T01:06:40.353Z,974.26
2023-02-06T01:07:40.303Z,974.28
2023-02-06T01:08:40.352Z,974.30
2023-02-06T01:09:40.555Z,974.31
2023-02-06T01:10:40.860Z,974.31
2023-02-06T01:11:39.910Z,974.36
2023-02-06T01:12:40.339Z,974.35
2023-02-06T01:13:41.366Z,974.38
2023-02-06T01:14:40.291Z,974.37
2023-02-06T01:15:42.977Z,974.38
2023-02-06T01:16:40.468Z,974.37
2023-02-06T01:17:40.361Z,974.39
2023-02-06T01:18:40.386Z,974.37
2023-02-06T01:19:40.189Z,974.41
2023-02-06T01:20:40.340Z,974.39
2023-02-06T01:21:41.816Z,974.36
2023-02-06T01:22:41.556Z,974.36
2023-02-06T01:23:40.724Z,974.38
2023-02-06T01:24:40.624Z,974.38
2023-02-06T01:25:40.484Z,974.36
2023-02-06T01:26:40.624Z,974.39
2023-02-06T01:27:40.330Z,974.41
2023-02-06T01:28:41.541Z,974.45
2023-02-06T01:29:40.334Z,974.46
2023-02-06T01:30:40.628Z,974.48
2023-02-06T01:31:39.452Z,974.50
2023-02-06T01:32:40.101Z,974.49
2023-02-06T01:33:40.062Z,974.49
2023-02-06T01:34:40.201Z,974.44
2023-02-06T01:35:39.566Z,974.51
2023-02-06T01:36:40.577Z,974.48
2023-02-06T01:37:40.485Z,974.40
2023-02-06T01:38:39.832Z,974.43
2023-02-06T01:39:40.505Z,974.43
2023-02-06T01:40:39.635Z,974.45
2023-02-06T01:41:39.346Z,974.45
2023-02-06T01:42:39.631Z,974.40
2023-02-06T01:43:39.188Z,974.43
2023-02-06T01:44:39.670Z,974.41
2023-02-06T01:45:39.547Z,974.45
2023-02-06T01:46:39.292Z,974.41
2023-02-06T01:47:39.157Z,974.40
2023-02-06T01:48:39.154Z,974.40
2023-02-06T01:49:39.864Z,974.45
2023-02-06T01:50:39.607Z,974.46
2023-02-06T01:51:39.500Z,974.50
2023-02-06T01:52:39.122Z,974.47
2023-02-06T01:53:39.122Z,974.43
2023-02-06T01:54:39.618Z,974.47
2023-02-06T01:55:39.500Z,974.44
2023-02-06T01:56:39.056Z,974.45
2023-02-06T01:57:39.716Z,974.38
2023-02-06T01:58:39.971Z,974.40
2023-02-06T01:59:39.467Z,974.38
2023-02-06T02:00:39.072Z,974.34
2023-02-06T02:01:39.706Z,974.35
2023-02-06T02:02:39.038Z,974.30
2023-02-06T02:03:39.674Z,974.31
2023-02-06T02:04:39.025Z,974.32
2023-02-06T02:05:39.011Z,974.37
2023-02-06T02:08:37.549Z,974.28
2023-02-06T02:09:37.647Z,974.26
2023-02-06T02:10:37.521Z,974.28
2023-02-06T02:11:37.605Z,974.27
2023-02-06T02:12:37.178Z,974.23
2023-02-06T02:13:37.607Z,974.21
2023-02-06T02:14:37.117Z,974.22
2023-02-06T02:15:37.731Z,974.19
2023-02-06T02:16:37.154Z,974.19
2023-02-06T02:17:37.716Z,974.24
2023-02-06T02:18:37.120Z,974.22
2023-02-06T02:19:37.026Z,974.20
2023-02-06T02:20:37.111Z,974.16
2023-02-06T02:21:37.582Z,974.13
2023-02-06T02:22:37.674Z,974.13
2023-02-06T02:23:37.598Z,974.13
2023-02-06T02:24:36.920Z,974.11
2023-02-06T02:25:37.332Z,974.08
2023-02-06T02:26:37.801Z,974.07
2023-02-06T02:27:37.338Z,974.07
2023-02-06T02:28:36.887Z,974.03
2023-02-06T02:29:36.832Z,974.02
2023-02-06T02:30:36.956Z,973.99
2023-02-06T02:31:36.828Z,974.08
2023-02-06T02:32:37.513Z,974.04
2023-02-06T02:33:37.499Z,974.03
2023-02-06T02:34:37.544Z,974.03
2023-02-06T02:35:37.170Z,974.01
2023-02-06T02:36:36.887Z,974.01
2023-02-06T02:37:37.448Z,973.99
2023-02-06T02:38:36.688Z,973.95
2023-02-06T02:39:36.763Z,973.97
2023-02-06T02:40:37.456Z,973.97
2023-02-06T02:41:36.788Z,973.98
2023-02-06T02:42:36.866Z,974.03
2023-02-06T02:43:36.781Z,974.07
2023-02-06T02:44:36.683Z,974.01
2023-02-06T02:45:37.121Z,973.94
2023-02-06T02:46:36.785Z,973.93
2023-02-06T02:47:36.580Z,973.94
2023-02-06T02:48:36.647Z,973.92
2023-02-06T02:49:36.735Z,973.99
2023-02-06T02:50:36.639Z,973.96
2023-02-06T02:51:37.099Z,973.90
2023-02-06T02:52:36.649Z,973.90
2023-02-06T02:53:36.564Z,973.93
2023-02-06T02:54:36.638Z,973.94
2023-02-06T02:55:37.528Z,973.89
2023-02-06T02:56:36.634Z,973.93
2023-02-06T02:57:36.459Z,973.91
2023-02-06T02:58:36.631Z,973.97
2023-02-06T02:59:36.699Z,973.95
2023-02-06T03:00:36.624Z,973.91
2023-02-06T03:01:37.106Z,973.92
2023-02-06T03:02:36.993Z,973.94
2023-02-06T03:03:36.315Z,973.88
2023-02-06T03:04:36.595Z,973.91
2023-02-06T03:05:36.768Z,973.92
2023-02-06T03:06:47.277Z,973.96
2023-02-06T03:07:36.524Z,973.95
2023-02-06T03:08:36.763Z,973.94
2023-02-06T03:09:36.521Z,973.97
2023-02-06T03:10:36.541Z,973.97
2023-02-06T03:11:36.478Z,973.94
2023-02-06T03:12:36.296Z,973.95
2023-02-06T03:13:36.471Z,973.98
2023-02-06T03:14:38.333Z,974.02
2023-02-06T03:15:36.815Z,973.93
2023-02-06T03:16:36.360Z,973.96
2023-02-06T03:17:36.201Z,973.95
2023-02-06T03:18:36.597Z,973.99
2023-02-06T03:19:36.832Z,973.98
2023-02-06T03:20:36.537Z,973.94
2023-02-06T03:21:36.276Z,973.99
2023-02-06T03:22:36.182Z,974.03
2023-02-06T03:23:37.574Z,974.04
2023-02-06T03:24:36.639Z,974.00
2023-02-06T03:25:36.638Z,973.97
2023-02-06T03:26:36.338Z,974.04
2023-02-06T03:27:36.610Z,974.03
2023-02-06T03:28:36.121Z,974.02
2023-02-06T03:29:37.230Z,974.04
2023-02-06T03:30:36.280Z,974.06
2023-02-06T03:31:36.257Z,974.11
2023-02-06T03:32:36.699Z,974.05
2023-02-06T03:33:36.684Z,974.05
2023-02-06T03:34:36.646Z,974.08
2023-02-06T03:35:36.452Z,974.11
2023-02-06T03:36:36.398Z,974.13
2023-02-06T03:37:36.149Z,974.08
2023-02-06T03:38:36.485Z,974.11
2023-02-06T03:39:37.775Z,974.06
2023-02-06T03:40:36.382Z,974.09
2023-02-06T03:41:36.158Z,974.04
2023-02-06T03:42:36.193Z,974.03
2023-02-06T03:43:36.254Z,974.03
2023-02-06T03:44:36.230Z,974.06
2023-02-06T03:45:37.094Z,973.99
2023-02-06T03:46:36.213Z,974.00
2023-02-06T03:47:43.366Z,974.01
2023-02-06T03:48:36.676Z,973.98
2023-02-06T03:49:36.441Z,974.01
2023-02-06T03:50:36.330Z,973.97
2023-02-06T03:51:36.316Z,974.00
2023-02-06T03:52:36.819Z,973.97
2023-02-06T03:53:36.400Z,973.99
2023-02-06T03:54:36.654Z,973.97
2023-02-06T03:55:36.665Z,973.96
2023-02-06T03:56:36.350Z,973.98
2023-02-06T03:57:36.786Z,974.02
2023-02-06T03:58:36.330Z,974.03
2023-02-06T03:59:36.240Z,974.00
2023-02-06T04:00:36.367Z,973.97
2023-02-06T04:01:36.397Z,973.98
2023-02-06T04:02:36.389Z,974.02
2023-02-06T04:03:36.145Z,974.03
2023-02-06T04:04:36.328Z,974.03
2023-02-06T04:05:36.741Z,973.98
2023-02-06T04:06:42.678Z,974.05
2023-02-06T04:07:36.444Z,974.14
2023-02-06T04:08:36.339Z,974.17
2023-02-06T04:09:36.438Z,974.19
2023-02-06T04:10:36.395Z,974.23
2023-02-06T04:11:36.239Z,974.23
2023-02-06T04:12:36.326Z,974.20
2023-02-06T04:13:36.281Z,974.18
2023-02-06T04:14:36.288Z,974.17
2023-02-06T04:15:35.875Z,974.19
2023-02-06T04:16:36.459Z,974.20
2023-02-06T04:17:53.523Z,974.19
2023-02-06T04:18:36.492Z,974.24
2023-02-06T04:19:36.177Z,974.22
2023-02-06T04:20:36.400Z,974.18
2023-02-06T04:21:36.348Z,974.19
2023-02-06T04:22:36.477Z,974.17
2023-02-06T04:23:43.825Z,974.18
2023-02-06T04:24:40.104Z,974.18
2023-02-06T04:25:43.611Z,974.20
2023-02-06T04:26:36.366Z,974.15
2023-02-06T04:28:25.634Z,974.23
2023-02-06T04:29:25.552Z,974.23
2023-02-06T04:32:08.898Z,974.35
2023-02-06T04:33:07.849Z,974.35
2023-02-06T04:34:15.400Z,974.34
2023-02-06T04:35:16.324Z,974.38
2023-02-06T04:36:10.914Z,974.34
2023-02-06T04:37:07.839Z,974.26
2023-02-06T04:38:08.287Z,974.27
2023-02-06T04:39:07.640Z,974.30
2023-02-06T04:42:55.613Z,974.31
2023-02-06T04:44:05.333Z,974.32
2023-02-06T04:44:55.645Z,974.30
2023-02-06T04:45:56.278Z,974.27
2023-02-06T04:46:55.595Z,974.28
2023-02-06T04:47:57.950Z,974.21
2023-02-06T04:48:55.568Z,974.18
2023-02-06T04:49:57.735Z,974.11
2023-02-06T04:50:55.604Z,974.14
2023-02-06T04:51:55.493Z,974.12
2023-02-06T04:52:55.469Z,974.12
2023-02-06T04:53:55.410Z,974.14
2023-02-06T04:54:55.797Z,974.11
2023-02-06T04:55:55.852Z,974.09
2023-02-06T04:56:55.542Z,974.09
2023-02-06T04:58:03.500Z,974.12
2023-02-06T04:59:45.907Z,974.06
2023-02-06T05:00:46.611Z,974.02
2023-02-06T05:01:45.927Z,974.04
2023-02-06T05:02:46.097Z,973.99
2023-02-06T05:03:46.363Z,973.93
2023-02-06T05:04:45.611Z,973.93
2023-02-06T05:05:46.332Z,973.92
2023-02-06T05:06:55.013Z,973.94
2023-02-06T05:07:55.479Z,973.94
2023-02-06T05:08:45.573Z,973.98
2023-02-06T05:11:43.954Z,973.90
2023-02-06T05:12:44.304Z,973.94
2023-02-06T05:13:44.231Z,973.97
2023-02-06T05:14:44.489Z,973.96
2023-02-06T05:15:43.854Z,973.95
2023-02-06T05:16:44.464Z,973.91
2023-02-06T05:17:43.793Z,973.85
2023-02-06T05:18:43.899Z,973.86
2023-02-06T05:19:43.788Z,973.79
2023-02-06T05:20:44.409Z,973.82
2023-02-06T05:21:43.789Z,973.79
2023-02-06T05:22:44.370Z,973.81
2023-02-06T05:23:43.611Z,973.81
2023-02-06T05:24:43.733Z,973.85
2023-02-06T05:25:45.466Z,973.82
2023-02-06T05:26:43.692Z,973.85
2023-02-06T05:27:44.327Z,973.83
2023-02-06T05:28:43.814Z,973.82
2023-02-06T05:29:43.638Z,973.90
2023-02-06T05:30:43.833Z,973.89
2023-02-06T05:31:44.029Z,973.89
2023-02-06T05:32:43.479Z,973.82
2023-02-06T05:33:44.211Z,973.91
2023-02-06T05:34:43.503Z,973.87
2023-02-06T05:35:44.174Z,973.91
2023-02-06T05:36:44.164Z,973.85
2023-02-06T05:37:43.930Z,973.84
2023-02-06T05:38:43.480Z,973.81
2023-02-06T05:39:43.356Z,973.79
2023-02-06T05:40:43.447Z,973.77
2023-02-06T05:41:52.291Z,973.81
2023-02-06T05:42:44.125Z,973.82
2023-02-06T05:43:44.063Z,973.80
2023-02-06T05:44:43.349Z,973.69
2023-02-06T05:45:44.044Z,973.70
2023-02-06T05:46:43.439Z,973.74
2023-02-06T05:47:43.339Z,973.69
2023-02-06T05:48:43.997Z,973.66
2023-02-06T05:49:43.519Z,973.68
2023-02-06T05:50:43.989Z,973.70
2023-02-06T05:51:43.525Z,973.74
2023-02-06T05:52:43.402Z,973.76
2023-02-06T05:53:43.502Z,973.79
2023-02-06T05:54:43.926Z,973.74
2023-02-06T05:55:43.924Z,973.82
2023-02-06T05:56:43.927Z,973.80
2023-02-06T05:57:43.877Z,973.82
2023-02-06T05:58:43.881Z,973.82
2023-02-06T05:59:44.105Z,973.85
2023-02-06T06:00:43.239Z,973.89
2023-02-06T06:01:43.493Z,973.92
2023-02-06T06:02:43.818Z,973.92
2023-02-06T06:03:43.152Z,973.90
2023-02-06T06:04:44.030Z,973.85
2023-02-06T06:05:43.996Z,973.89
2023-02-06T06:06:43.215Z,973.89
2023-02-06T06:07:50.725Z,973.92
2023-02-06T06:08:43.195Z,973.88
2023-02-06T06:09:43.090Z,973.91
2023-02-06T06:10:43.055Z,973.94
2023-02-06T06:11:44.960Z,973.95
2023-02-06T06:12:43.694Z,973.96
2023-02-06T06:13:43.638Z,973.92
2023-02-06T06:14:43.153Z,973.91
2023-02-06T06:15:42.912Z,973.88
2023-02-06T06:16:43.610Z,973.89
2023-02-06T06:17:43.623Z,973.89
2023-02-06T06:18:43.177Z,973.93
2023-02-06T06:19:42.951Z,973.95
2023-02-06T06:20:43.131Z,973.95
2023-02-06T06:21:43.556Z,973.95
2023-02-06T06:22:42.775Z,973.97
2023-02-06T06:23:42.914Z,974.01
2023-02-06T06:24:42.751Z,973.98
2023-02-06T06:25:43.139Z,973.95
2023-02-06T06:26:42.754Z,973.97
2023-02-06T06:27:43.566Z,973.94
2023-02-06T06:28:42.743Z,973.92
2023-02-06T06:29:42.848Z,973.92
2023-02-06T06:30:42.905Z,973.94
2023-02-06T06:31:42.905Z,973.87
2023-02-06T06:32:42.768Z,973.81
2023-02-06T06:33:43.393Z,973.85
2023-02-06T06:34:42.739Z,973.86
2023-02-06T06:35:42.656Z,973.86
2023-02-06T06:36:42.712Z,973.83
2023-02-06T06:37:42.989Z,973.79
2023-02-06T06:38:43.294Z,973.81
2023-02-06T06:39:42.619Z,973.76
2023-02-06T06:40:43.300Z,973.75
2023-02-06T06:41:43.291Z,973.72
2023-02-06T06:42:42.525Z,973.80
2023-02-06T06:43:43.179Z,973.77
2023-02-06T06:44:42.532Z,973.76
2023-02-06T06:45:42.808Z,973.85
2023-02-06T06:46:42.491Z,973.77
2023-02-06T06:47:43.215Z,973.81
2023-02-06T06:48:42.478Z,973.80
2023-02-06T06:49:43.162Z,973.79
2023-02-06T06:50:43.167Z,973.78
2023-02-06T06:51:43.137Z,973.80
2023-02-06T06:52:42.695Z,973.76
2023-02-06T06:53:43.127Z,973.82
2023-02-06T06:54:43.086Z,973.81
2023-02-06T06:55:42.767Z,973.83
2023-02-06T06:56:42.641Z,973.81
2023-02-06T06:57:42.414Z,973.84
2023-02-06T06:58:42.638Z,973.87
2023-02-06T06:59:42.555Z,973.83
2023-02-06T07:00:42.688Z,973.87
2023-02-06T07:01:42.739Z,973.83
2023-02-06T07:02:42.404Z,973.83
2023-02-06T07:03:42.534Z,973.80
2023-02-06T07:04:42.438Z,973.82
2023-02-06T07:05:42.714Z,973.85
2023-02-06T07:06:42.251Z,973.84
2023-02-06T07:07:49.352Z,973.83
2023-02-06T07:08:42.615Z,973.83
2023-02-06T07:09:42.357Z,973.78
2023-02-06T07:10:43.142Z,973.82
2023-02-06T07:11:42.989Z,973.90
2023-02-06T07:12:42.354Z,973.83
2023-02-06T07:13:42.330Z,973.91
2023-02-06T07:14:42.760Z,973.92
2023-02-06T07:15:42.815Z,974.00
2023-02-06T07:16:42.812Z,973.98
2023-02-06T07:17:42.333Z,974.01
2023-02-06T07:18:42.195Z,974.00
2023-02-06T07:19:42.475Z,973.98
2023-02-06T07:20:43.421Z,973.93
2023-02-06T07:21:42.110Z,974.00
2023-02-06T07:22:42.742Z,974.03
2023-02-06T07:23:42.494Z,974.01
2023-02-06T07:24:41.992Z,974.09
2023-02-06T07:25:42.482Z,974.06
2023-02-06T07:26:41.991Z,974.09
2023-02-06T07:27:41.908Z,974.08
2023-02-06T07:28:41.985Z,974.09
2023-02-06T07:29:41.920Z,974.05
2023-02-06T07:30:41.834Z,974.01
2023-02-06T07:31:42.473Z,973.95
2023-02-06T07:32:41.806Z,973.93
2023-02-06T07:33:41.820Z,973.96
2023-02-06T07:34:41.778Z,974.04
2023-02-06T07:35:41.838Z,974.06
2023-02-06T07:36:41.795Z,974.03
2023-02-06T07:37:43.192Z,974.05
2023-02-06T07:38:41.780Z,974.07
2023-02-06T07:39:41.889Z,974.05
2023-02-06T07:40:45.441Z,974.03
2023-02-06T07:41:41.868Z,974.02
2023-02-06T07:42:41.775Z,974.00
2023-02-06T07:43:41.863Z,974.00
2023-02-06T07:44:41.834Z,973.96
2023-02-06T07:45:41.694Z,973.96
2023-02-06T07:46:41.778Z,973.90
2023-02-06T07:47:41.637Z,973.88
2023-02-06T07:48:41.548Z,973.92
2023-02-06T07:49:41.868Z,973.91
2023-02-06T07:50:41.543Z,973.88
2023-02-06T07:51:41.649Z,973.92
2023-02-06T07:52:41.513Z,973.95
2023-02-06T07:53:41.653Z,973.96
2023-02-06T07:54:41.542Z,973.98
2023-02-06T07:56:47.057Z,973.94
2023-02-06T07:57:46.803Z,973.91
2023-02-06T07:58:46.689Z,973.94
2023-02-06T07:59:46.796Z,973.94
2023-02-06T08:00:47.351Z,973.99
2023-02-06T08:01:47.341Z,973.94
2023-02-06T08:02:47.230Z,973.98
2023-02-06T08:03:47.337Z,973.99
2023-02-06T08:04:47.270Z,973.95
2023-02-06T08:06:59.190Z,974.00
2023-02-06T08:07:38.676Z,973.97
2023-02-06T08:08:38.031Z,974.04
2023-02-06T08:09:37.866Z,974.08
2023-02-06T08:10:38.684Z,974.15
2023-02-06T08:11:37.917Z,974.12
2023-02-06T08:12:38.860Z,974.21
2023-02-06T08:13:37.913Z,974.22
2023-02-06T08:14:38.383Z,974.16
2023-02-06T08:15:38.145Z,974.11
2023-02-06T08:16:38.424Z,974.08
2023-02-06T08:17:37.929Z,974.04
2023-02-06T08:18:38.326Z,974.02
2023-02-06T08:19:37.863Z,973.97
2023-02-06T08:20:38.330Z,974.00
2023-02-06T08:21:38.406Z,974.02
2023-02-06T08:22:38.491Z,974.04
2023-02-06T08:23:38.017Z,974.06
2023-02-06T08:24:38.144Z,974.14
2023-02-06T08:25:38.402Z,974.11
2023-02-06T08:26:38.487Z,974.08
2023-02-06T08:27:38.001Z,974.08
2023-02-06T08:28:39.226Z,974.02
2023-02-06T08:29:37.663Z,973.99
2023-02-06T08:30:38.525Z,973.95
2023-02-06T08:31:38.610Z,973.99
2023-02-06T08:32:38.578Z,973.96
2023-02-06T08:33:37.731Z,974.01
2023-02-06T08:34:37.827Z,974.01
2023-02-06T08:35:37.996Z,974.08
2023-02-06T08:36:38.232Z,974.04
2023-02-06T08:37:37.455Z,974.03
2023-02-06T08:38:37.813Z,974.09
2023-02-06T08:39:37.452Z,974.07
2023-02-06T08:40:37.799Z,974.07
2023-02-06T08:41:38.342Z,974.02
2023-02-06T08:42:37.512Z,974.06
2023-02-06T08:43:37.426Z,974.11
2023-02-06T08:44:37.515Z,974.19
2023-02-06T08:45:37.654Z,974.14
2023-02-06T08:46:37.508Z,974.14
2023-02-06T08:47:37.685Z,974.19
2023-02-06T08:48:37.321Z,974.14
2023-02-06T08:49:37.568Z,974.13
2023-02-06T08:50:37.752Z,974.15
2023-02-06T08:51:37.556Z,974.16
2023-02-06T08:52:38.301Z,974.18
2023-02-06T08:53:37.582Z,974.14
2023-02-06T08:54:38.868Z,974.14
2023-02-06T08:55:37.949Z,974.18
2023-02-06T08:56:37.298Z,974.14
2023-02-06T08:57:37.202Z,974.15
2023-02-06T08:58:44.823Z,974.19
2023-02-06T08:59:44.921Z,974.13
2023-02-06T09:00:37.258Z,974.20
2023-02-06T09:01:37.227Z,974.21
2023-02-06T09:02:37.293Z,974.18
2023-02-06T09:03:37.146Z,974.23
2023-02-06T09:04:37.237Z,974.25
2023-02-06T09:05:37.731Z,974.25
2023-02-06T09:06:37.260Z,974.24
2023-02-06T09:07:37.340Z,974.22
2023-02-06T09:08:37.835Z,974.22
2023-02-06T09:09:37.319Z,974.18
2023-02-06T09:10:37.433Z,974.21
2023-02-06T09:11:37.315Z,974.24
2023-02-06T09:12:37.227Z,974.23
2023-02-06T09:13:36.948Z,974.24
2023-02-06T09:14:37.214Z,974.21
2023-02-06T09:15:37.400Z,974.25
2023-02-06T09:16:37.225Z,974.17
2023-02-06T09:17:36.932Z,974.19
2023-02-06T09:18:37.708Z,974.20
2023-02-06T09:19:36.937Z,974.19
2023-02-06T09:20:37.020Z,974.18
2023-02-06T09:21:36.922Z,974.14
2023-02-06T09:22:38.194Z,974.17
2023-02-06T09:23:36.901Z,974.21
2023-02-06T09:24:37.746Z,974.19
2023-02-06T09:25:37.278Z,974.21
2023-02-06T09:26:40.588Z,974.17
2023-02-06T09:27:38.187Z,974.16
2023-02-06T09:28:36.995Z,974.21
2023-02-06T09:29:36.717Z,974.16
2023-02-06T09:30:36.818Z,974.17
2023-02-06T09:31:36.787Z,974.16
2023-02-06T09:32:37.739Z,974.09
2023-02-06T09:33:36.713Z,974.09
2023-02-06T09:34:37.156Z,974.11
2023-02-06T09:35:38.105Z,974.06
2023-02-06T09:36:37.200Z,974.04
2023-02-06T09:37:36.661Z,974.04
2023-02-06T09:38:37.691Z,973.98
2023-02-06T09:39:36.762Z,973.97
2023-02-06T09:40:37.677Z,973.99
2023-02-06T09:41:36.670Z,973.98
2023-02-06T09:42:36.765Z,973.99
2023-02-06T09:43:36.799Z,974.06
2023-02-06T09:44:36.721Z,974.09
2023-02-06T09:45:37.049Z,974.14
2023-02-06T09:46:36.694Z,974.15
2023-02-06T09:47:45.177Z,974.16
2023-02-06T09:48:46.507Z,974.16
2023-02-06T09:51:34.293Z,974.15
2023-02-06T09:52:34.169Z,974.14
2023-02-06T09:53:34.097Z,974.14
2023-02-06T09:54:34.838Z,974.15
2023-02-06T09:55:34.334Z,974.09
2023-02-06T09:56:34.833Z,974.11
2023-02-06T09:57:34.040Z,974.20
2023-02-06T09:58:34.336Z,974.16
2023-02-06T09:59:35.467Z,974.18
2023-02-06T10:00:34.748Z,974.19
2023-02-06T10:01:33.876Z,974.19
2023-02-06T10:02:33.755Z,974.18
2023-02-06T10:03:34.575Z,974.17
2023-02-06T10:04:34.709Z,974.11
2023-02-06T10:05:33.865Z,974.13
2023-02-06T10:06:36.467Z,974.08
2023-02-06T10:07:33.810Z,974.13
2023-02-06T10:09:23.906Z,974.13
2023-02-06T10:10:24.494Z,974.10
2023-02-06T10:11:23.680Z,974.10
2023-02-06T10:12:24.459Z,974.09
2023-02-06T10:13:24.248Z,974.10
2023-02-06T10:14:24.426Z,974.08
2023-02-06T10:15:23.470Z,974.02
2023-02-06T10:16:23.507Z,974.02
2023-02-06T10:17:23.609Z,974.03
2023-02-06T10:18:23.410Z,973.96
2023-02-06T10:20:30.422Z,973.99
2023-02-06T10:21:29.521Z,973.98
2023-02-06T10:22:29.565Z,973.95
2023-02-06T10:23:29.361Z,973.89
2023-02-06T10:24:29.371Z,973.88
2023-02-06T10:25:29.499Z,973.87
2023-02-06T10:26:29.450Z,973.88
2023-02-06T10:27:37.263Z,973.82
2023-02-06T10:28:29.358Z,973.84
2023-02-06T10:29:29.276Z,973.79
2023-02-06T10:30:29.324Z,973.85
2023-02-06T10:31:29.430Z,973.81
2023-02-06T10:32:29.460Z,973.73
2023-02-06T10:33:30.286Z,973.74
2023-02-06T10:34:36.832Z,973.75
2023-02-06T10:35:29.285Z,973.73
2023-02-06T10:36:36.751Z,973.76
2023-02-06T10:37:29.167Z,973.79
2023-02-06T10:38:29.437Z,973.80
2023-02-06T10:39:30.613Z,973.68
2023-02-06T10:40:29.179Z,973.71
2023-02-06T10:41:29.109Z,973.67
2023-02-06T10:42:30.100Z,973.64
2023-02-06T10:43:29.089Z,973.64
2023-02-06T10:44:29.168Z,973.62
2023-02-06T10:45:29.206Z,973.62
2023-02-06T10:46:30.555Z,973.63
2023-02-06T10:47:30.000Z,973.59
2023-02-06T10:48:29.080Z,973.63
2023-02-06T10:49:28.986Z,973.63
2023-02-06T10:50:29.048Z,973.54
2023-02-06T10:51:29.076Z,973.55
2023-02-06T10:52:30.953Z,973.56
2023-02-06T10:53:29.225Z,973.57
2023-02-06T10:54:30.462Z,973.51
2023-02-06T10:55:28.921Z,973.53
2023-02-06T10:56:28.970Z,973.52
2023-02-06T10:57:29.216Z,973.46
2023-02-06T10:59:34.402Z,973.47
2023-02-06T11:00:34.790Z,973.45
2023-02-06T11:01:35.078Z,973.41
2023-02-06T11:02:34.681Z,973.44
2023-02-06T11:03:34.376Z,973.40
2023-02-06T11:04:35.001Z,973.42
2023-02-06T11:05:35.581Z,973.34
2023-02-06T11:06:42.752Z,973.37
2023-02-06T11:07:34.537Z,973.34
2023-02-06T11:08:35.054Z,973.34
2023-02-06T11:09:34.544Z,973.32
2023-02-06T11:10:35.376Z,973.34
2023-02-06T11:11:33.910Z,973.33
2023-02-06T11:12:34.660Z,973.33
2023-02-06T11:13:34.848Z,973.27
2023-02-06T11:14:34.062Z,973.23
2023-02-06T11:15:34.708Z,973.21
2023-02-06T11:16:34.047Z,973.21
2023-02-06T11:17:34.588Z,973.27
2023-02-06T11:18:34.055Z,973.27
2023-02-06T11:19:34.734Z,973.22
2023-02-06T11:20:34.351Z,973.15
2023-02-06T11:21:34.296Z,973.17
2023-02-06T11:22:44.287Z,973.15
2023-02-06T11:23:35.788Z,973.07
2023-02-06T11:24:34.707Z,973.13
2023-02-06T11:25:33.808Z,973.08
2023-02-06T11:26:35.138Z,973.03
2023-02-06T11:27:33.740Z,973.02
2023-02-06T11:28:34.679Z,973.03
2023-02-06T11:29:34.668Z,973.04
2023-02-06T11:30:33.736Z,973.04
2023-02-06T11:31:33.747Z,972.96
2023-02-06T11:32:34.180Z,972.97
2023-02-06T11:33:33.757Z,972.96
2023-02-06T11:34:34.597Z,972.96
2023-02-06T11:35:36.973Z,972.95
2023-02-06T11:36:34.566Z,972.94
2023-02-06T11:37:34.314Z,972.95
2023-02-06T11:38:36.397Z,972.90
2023-02-06T11:39:33.521Z,972.83
2023-02-06T11:40:33.628Z,972.84
2023-02-06T11:41:35.470Z,972.85
2023-02-06T11:42:34.449Z,972.82
2023-02-06T11:43:34.202Z,972.90
2023-02-06T11:44:34.660Z,972.94
2023-02-06T11:45:33.556Z,972.91
2023-02-06T11:46:33.597Z,972.88
2023-02-06T11:47:33.462Z,972.91
2023-02-06T11:48:33.411Z,972.88
2023-02-06T11:49:34.344Z,972.84
2023-02-06T11:50:33.711Z,972.86
2023-02-06T11:51:34.664Z,972.93
2023-02-06T11:52:33.410Z,972.94
2023-02-06T11:53:33.356Z,972.96
2023-02-06T11:54:34.351Z,972.92
2023-02-06T11:55:33.568Z,972.90
2023-02-06T11:56:33.731Z,972.85
2023-02-06T11:57:33.522Z,972.80
2023-02-06T11:58:33.370Z,972.79
2023-02-06T11:59:34.261Z,972.82
2023-02-06T12:00:34.226Z,972.79
2023-02-06T12:01:33.254Z,972.79
2023-02-06T12:02:34.411Z,972.80
2023-02-06T12:03:33.276Z,972.78
2023-02-06T12:04:34.210Z,972.70
2023-02-06T12:05:33.434Z,972.69
2023-02-06T12:06:33.862Z,972.70
2023-02-06T12:07:34.090Z,972.68
2023-02-06T12:08:33.338Z,972.66
2023-02-06T12:09:33.418Z,972.63
2023-02-06T12:10:34.147Z,972.61
2023-02-06T12:11:33.851Z,972.59
2023-02-06T12:12:33.232Z,972.56
2023-02-06T12:13:33.048Z,972.56
2023-02-06T12:17:43.345Z,972.45
2023-02-06T12:18:22.213Z,972.45
2023-02-06T12:19:22.500Z,972.47
2023-02-06T12:20:22.190Z,972.41
2023-02-06T12:21:22.400Z,972.43
2023-02-06T12:22:22.256Z,972.46
2023-02-06T12:23:22.376Z,972.45
2023-02-06T12:24:22.579Z,972.41
2023-02-06T12:25:22.358Z,972.39
2023-02-06T12:26:22.089Z,972.42
2023-02-06T12:27:22.142Z,972.34
2023-02-06T12:28:22.082Z,972.33
2023-02-06T12:29:22.239Z,972.36
2023-02-06T12:30:22.577Z,972.39
2023-02-06T12:31:22.211Z,972.33
2023-02-06T12:32:22.557Z,972.32
2023-02-06T12:33:21.954Z,972.33
2023-02-06T12:34:21.981Z,972.41
2023-02-06T12:35:22.087Z,972.30
2023-02-06T12:36:22.518Z,972.32
2023-02-06T12:37:22.162Z,972.34
2023-02-06T12:38:21.988Z,972.34
2023-02-06T12:39:22.636Z,972.35
2023-02-06T12:40:22.880Z,972.26
2023-02-06T12:41:22.420Z,972.25
2023-02-06T12:42:21.838Z,972.29
2023-02-06T12:43:22.859Z,972.32
2023-02-06T12:44:21.825Z,972.25
2023-02-06T12:45:22.058Z,972.26
2023-02-06T12:46:22.368Z,972.25
2023-02-06T12:47:22.043Z,972.28
2023-02-06T12:48:21.788Z,972.22